Time;durP1;ratioP1;P1;durP2;ratioP2;P2;SDS_P1;SDS_P2;PMS_P1;PMS_P2;Temp;Humidity;BMP_temperature;BMP_pressure;BME280_temperature;BME280_humidity;BME280_pressure;Samples;Min_cycle;Max_cycle;Signal;HPM_P1;HPM_P2
2021/12/16 00:01:49;;;;;;;40.17;23.77;;;;;;;5.46;88.47;100437.06;6186132;23;20092;-81
2021/12/16 00:04:50;;;;;;;39.80;23.05;;;;;;;5.50;87.54;100448.97;6188056;23;20071;-80
2021/12/16 00:07:39;;;;;;;41.47;22.95;;;;;;;5.51;87.68;100444.47;6185779;23;20001;-80
2021/12/16 00:34:45;;;;;;;42.50;23.52;;;;;;;5.26;86.79;100454.44;6164881;23;20040;-82
2021/12/16 00:37:11;;;;;;;46.42;25.05;;;;;;;5.21;86.92;100448.84;6159590;23;20341;-82
2021/12/16 00:39:38;;;;;;;45.17;23.75;;;;;;;5.29;86.89;100454.91;6159894;23;20008;-82
2021/12/16 00:42:10;;;;;;;44.53;25.45;;;;;;;5.26;86.82;100454.44;6159724;23;20067;-82
2021/12/16 00:49:45;;;;;;;41.92;22.98;;;;;;;5.15;87.26;100454.84;6199263;23;20020;-82
2021/12/16 00:55:16;;;;;;;39.95;24.08;;;;;;;5.05;87.02;100440.97;6192205;23;20013;-83
2021/12/16 00:57:44;;;;;;;41.03;23.35;;;;;;;5.08;86.62;100449.41;6169264;23;20016;-84
2021/12/16 01:00:13;;;;;;;39.85;24.00;;;;;;;5.13;87.16;100459.47;6197928;23;20000;-85
2021/12/16 01:08:15;;;;;;;43.33;25.42;;;;;;;5.03;86.57;100445.63;6197574;23;20371;-84
2021/12/16 01:50:28;;;;;;;39.97;22.10;;;;;;;4.24;86.16;100384.97;6208807;23;20443;-81
2021/12/16 01:55:29;;;;;;;41.88;23.05;;;;;;;4.72;85.71;100468.59;6200271;23;20009;-81
2021/12/16 01:58:08;;;;;;;41.30;22.67;;;;;;;4.61;86.16;100453.09;6199674;23;20001;-82
2021/12/16 02:01:33;;;;;;;37.13;22.23;;;;;;;4.49;85.93;100436.78;6176465;23;20067;-81
2021/12/16 02:03:47;;;;;;;42.65;23.60;;;;;;;4.57;85.99;100449.94;6187198;23;20016;-80
2021/12/16 02:08:49;;;;;;;42.08;24.02;;;;;;;4.66;86.16;100464.81;6213563;23;20020;-81
2021/12/16 02:11:39;;;;;;;41.78;23.75;;;;;;;4.28;85.64;100405.59;6201499;23;20008;-82
2021/12/16 02:33:35;;;;;;;40.60;23.73;;;;;;;4.38;85.73;100461.75;6209464;23;20064;-84
2021/12/16 02:36:15;;;;;;;43.50;24.33;;;;;;;3.86;85.55;100376.00;6207646;23;19993;-84
2021/12/16 02:38:46;;;;;;;47.05;24.50;;;;;;;3.82;85.99;100373.84;6180773;23;20009;-83
2021/12/16 02:41:11;;;;;;;41.22;24.15;;;;;;;3.93;85.64;100387.53;6180278;23;20005;-82
2021/12/16 02:44:08;;;;;;;45.55;23.55;;;;;;;3.99;85.47;100393.97;6180360;23;19989;-83
2021/12/16 02:49:18;;;;;;;41.78;24.05;;;;;;;4.42;84.99;100483.38;6206126;23;20065;-83
2021/12/16 02:51:44;;;;;;;45.72;24.92;;;;;;;4.12;85.55;100447.09;6180000;23;20017;-81
2021/12/16 02:54:10;;;;;;;43.25;23.75;;;;;;;4.35;85.73;100491.16;6155036;23;20029;-81
2021/12/16 02:56:36;;;;;;;42.55;25.27;;;;;;;3.99;85.04;100437.06;6203551;23;20012;-81
2021/12/16 02:59:04;;;;;;;45.10;24.25;;;;;;;4.32;84.90;100488.88;6204863;23;20001;-80
2021/12/16 03:01:33;;;;;;;42.15;24.20;;;;;;;4.36;84.81;100494.63;6177769;23;20013;-81
2021/12/16 03:04:02;;;;;;;40.92;24.63;;;;;;;3.95;84.62;100438.38;6178745;23;20012;-80
2021/12/16 03:06:30;;;;;;;42.63;23.63;;;;;;;3.86;84.87;100434.09;6204853;23;20008;-79
2021/12/16 03:08:57;;;;;;;44.17;24.23;;;;;;;3.87;84.98;100437.56;6205409;23;20057;-81
2021/12/16 03:11:48;;;;;;;48.55;26.20;;;;;;;4.27;84.81;100507.03;6205774;23;20016;-81
2021/12/16 03:17:10;;;;;;;45.83;24.58;;;;;;;4.22;85.40;100500.59;6180039;23;20040;-80
2021/12/16 03:22:40;;;;;;;49.38;24.98;;;;;;;4.16;85.04;100502.09;6216141;23;20009;-82
2021/12/16 03:33:48;;;;;;;46.70;23.83;;;;;;;4.14;85.60;100516.44;6165321;23;20068;-81
2021/12/16 03:36:31;;;;;;;48.78;26.50;;;;;;;3.94;85.49;100481.63;6187597;23;20024;-81
2021/12/16 03:39:02;;;;;;;43.78;24.88;;;;;;;4.14;85.26;100517.28;6187777;23;20005;-82
2021/12/16 03:41:31;;;;;;;50.40;26.42;;;;;;;4.13;85.16;100512.97;6163489;23;20008;-82
2021/12/16 03:43:59;;;;;;;50.65;26.60;;;;;;;3.79;85.22;100455.06;6190329;23;20021;-81
2021/12/16 03:46:30;;;;;;;47.80;26.90;;;;;;;3.94;85.80;100470.22;6190112;23;20004;-81
2021/12/16 03:49:09;;;;;;;48.97;26.65;;;;;;;4.01;85.80;100481.78;6164820;23;20383;-83
2021/12/16 03:51:42;;;;;;;47.95;25.98;;;;;;;3.76;85.56;100454.56;6195178;23;20004;-82
2021/12/16 03:54:17;;;;;;;53.10;26.15;;;;;;;3.63;86.01;100433.09;6198511;23;20004;-83
2021/12/16 03:56:43;;;;;;;50.17;26.37;;;;;;;3.68;85.83;100439.56;6200066;23;20005;-81
2021/12/16 03:59:11;;;;;;;54.95;27.65;;;;;;;3.89;86.05;100476.00;6198486;23;20274;-82
2021/12/16 04:01:37;;;;;;;55.70;27.90;;;;;;;3.84;86.07;100461.66;6169635;23;20028;-82
2021/12/16 04:04:03;;;;;;;48.10;27.20;;;;;;;4.23;85.95;100518.09;6196745;23;20049;-83
2021/12/16 04:06:32;;;;;;;47.67;25.88;;;;;;;3.80;86.50;100448.78;6145644;23;20008;-83
2021/12/16 04:08:58;;;;;;;52.00;27.48;;;;;;;3.86;86.28;100447.31;6169057;23;20087;-82
2021/12/16 04:11:32;;;;;;;50.10;26.42;;;;;;;3.86;86.39;100452.59;6196330;23;20012;-81
2021/12/16 04:14:00;;;;;;;55.10;27.90;;;;;;;3.85;86.80;100448.28;6198342;23;20424;-82
2021/12/16 04:16:34;;;;;;;59.55;29.30;;;;;;;4.27;86.42;100517.59;6198727;23;20005;-82
2021/12/16 04:19:02;;;;;;;58.88;30.13;;;;;;;3.70;87.08;100426.19;6197503;23;20031;-82
2021/12/16 04:21:28;;;;;;;51.65;27.98;;;;;;;4.28;87.21;100513.94;6202731;23;20004;-83
2021/12/16 04:23:57;;;;;;;56.67;28.55;;;;;;;3.99;86.91;100463.47;6200920;23;20025;-83
2021/12/16 04:26:27;;;;;;;56.20;28.23;;;;;;;4.25;87.18;100493.16;6175281;23;20009;-82
2021/12/16 04:28:53;;;;;;;53.88;28.40;;;;;;;3.80;86.65;100425.00;6197301;23;20023;-81
2021/12/16 04:31:18;;;;;;;54.60;28.88;;;;;;;4.23;87.38;100500.44;6172315;23;20009;-81
2021/12/16 04:33:44;;;;;;;52.53;28.65;;;;;;;3.60;87.48;100401.78;6198396;23;20016;-80
2021/12/16 04:36:11;;;;;;;59.97;29.63;;;;;;;4.29;87.03;100504.22;6198491;23;20024;-81
2021/12/16 04:38:39;;;;;;;56.40;29.45;;;;;;;4.28;87.15;100507.88;6170587;23;20005;-79
2021/12/16 04:41:09;;;;;;;57.60;28.70;;;;;;;4.28;87.26;100511.31;6193746;23;20352;-79
2021/12/16 04:43:40;;;;;;;58.75;31.27;;;;;;;4.29;87.21;100505.03;6200050;23;20472;-81
2021/12/16 04:46:17;;;;;;;58.50;28.75;;;;;;;3.91;87.16;100439.69;6174602;23;20025;-83
2021/12/16 04:48:44;;;;;;;57.47;28.27;;;;;;;3.87;86.93;100430.44;6150676;23;20013;-82
2021/12/16 04:51:11;;;;;;;66.07;31.63;;;;;;;3.89;86.96;100448.78;6200844;23;20012;-84
2021/12/16 04:53:38;;;;;;;61.60;31.58;;;;;;;3.74;87.67;100425.69;6152432;23;20095;-83
2021/12/16 04:56:09;;;;;;;60.33;31.50;;;;;;;4.09;87.02;100482.59;6195694;23;20009;-82
2021/12/16 04:58:34;;;;;;;57.67;29.42;;;;;;;4.05;87.83;100459.31;6186087;23;20033;-84
2021/12/16 05:01:01;;;;;;;56.63;30.45;;;;;;;4.31;87.30;100507.50;6135400;23;20065;-82
2021/12/16 05:03:27;;;;;;;66.00;29.17;;;;;;;4.14;87.16;100485.56;6160251;23;20572;-83
2021/12/16 05:05:54;;;;;;;54.80;27.98;;;;;;;4.18;87.44;100493.97;6159431;23;20474;-82
2021/12/16 05:08:20;;;;;;;55.47;27.42;;;;;;;4.27;87.22;100508.84;6135238;23;20035;-84
2021/12/16 05:10:47;;;;;;;55.05;29.52;;;;;;;4.17;86.81;100492.34;6159370;23;20044;-82
2021/12/16 05:13:26;;;;;;;55.97;28.83;;;;;;;3.63;87.07;100415.44;6141573;23;20100;-81
2021/12/16 05:15:53;;;;;;;59.80;30.40;;;;;;;3.54;87.10;100400.59;6175983;23;20009;-82
2021/12/16 05:18:24;;;;;;;56.83;28.50;;;;;;;3.59;87.03;100410.66;6203022;23;20020;-82
2021/12/16 05:20:51;;;;;;;64.10;33.97;;;;;;;3.94;86.67;100470.22;6175872;23;20044;-80
2021/12/16 05:28:42;;;;;;;60.38;30.27;;;;;;;3.57;87.46;100424.03;6199984;23;20036;-82
2021/12/16 05:31:12;;;;;;;57.95;31.73;;;;;;;3.39;87.66;100404.06;6167145;23;20001;-82
2021/12/16 05:33:38;;;;;;;63.08;30.65;;;;;;;3.76;87.75;100446.63;6200250;23;20009;-82
2021/12/16 05:36:04;;;;;;;58.28;31.45;;;;;;;4.04;87.57;100499.97;6148463;23;20020;-82
2021/12/16 05:38:30;;;;;;;61.60;30.83;;;;;;;4.19;87.91;100527.38;6159284;23;19997;-82
2021/12/16 05:40:57;;;;;;;62.80;31.05;;;;;;;4.18;87.60;100534.44;6159366;23;20067;-82
2021/12/16 05:43:24;;;;;;;57.78;31.42;;;;;;;4.20;87.74;100550.13;6136186;23;20015;-83
2021/12/16 05:45:52;;;;;;;56.60;31.38;;;;;;;4.20;87.35;100537.75;6161478;23;20009;-84
2021/12/16 05:48:20;;;;;;;55.05;30.50;;;;;;;4.21;87.42;100539.41;6137093;23;20009;-85
2021/12/16 05:50:50;;;;;;;58.58;29.25;;;;;;;4.21;87.39;100549.16;6162226;23;20064;-85
2021/12/16 05:53:16;;;;;;;55.67;28.77;;;;;;;4.21;87.21;100551.81;6162173;23;20041;-83
2021/12/16 05:55:41;;;;;;;59.70;32.00;;;;;;;4.18;86.83;100550.31;6163403;23;20033;-85
2021/12/16 05:58:08;;;;;;;56.65;28.60;;;;;;;4.14;86.94;100549.00;6163678;23;20321;-85
2021/12/16 06:00:38;;;;;;;54.70;27.48;;;;;;;4.20;86.71;100564.19;6192943;23;20004;-86
2021/12/16 06:03:03;;;;;;;54.95;28.75;;;;;;;4.21;87.03;100573.78;6192869;23;20016;-86
2021/12/16 06:05:29;;;;;;;65.22;29.13;;;;;;;4.00;86.58;100549.63;6164925;23;20005;-85
2021/12/16 06:07:54;;;;;;;56.90;28.67;;;;;;;4.20;87.01;100577.41;6192096;23;20008;-85
2021/12/16 06:11:04;;;;;;;60.15;30.77;;;;;;;4.14;87.31;100569.28;6165818;23;20005;-86
2021/12/16 06:13:15;;;;;;;58.58;29.23;;;;;;;4.19;87.29;100588.97;6170032;23;20439;-86
2021/12/16 06:27:05;;;;;;;56.13;27.55;;;;;;;4.18;87.71;100600.50;6190879;23;20041;-87
2021/12/16 06:29:14;;;;;;;61.42;30.80;;;;;;;4.16;87.74;100601.66;6143281;23;20009;-86
2021/12/16 06:31:39;;;;;;;53.88;29.10;;;;;;;4.17;87.74;100605.97;6161658;23;20001;-88
2021/12/16 06:34:09;;;;;;;63.20;30.17;;;;;;;4.10;87.47;100600.53;6139888;23;20016;-87
2021/12/16 06:36:35;;;;;;;57.45;27.85;;;;;;;3.87;87.46;100553.78;6137971;23;20005;-88
2021/12/16 06:39:03;;;;;;;57.78;28.92;;;;;;;4.01;87.76;100585.66;6164129;23;20063;-87
2021/12/16 06:41:34;;;;;;;62.17;32.03;;;;;;;4.09;87.79;100590.94;6140280;23;20001;-86
2021/12/16 06:44:02;;;;;;;54.53;28.33;;;;;;;4.20;87.96;100608.28;6118209;23;20005;-87
2021/12/16 06:46:33;;;;;;;61.08;28.20;;;;;;;4.12;88.30;100585.31;6192215;23;20039;-86
2021/12/16 06:49:00;;;;;;;56.28;30.13;;;;;;;3.78;88.02;100540.53;6165162;23;20001;-85
2021/12/16 06:51:38;;;;;;;62.35;30.42;;;;;;;4.17;88.59;100601.50;6162344;23;20060;-84
2021/12/16 06:54:11;;;;;;;59.05;29.52;;;;;;;4.27;88.48;100619.84;6117869;23;20028;-86
2021/12/16 06:56:48;;;;;;;57.78;29.33;;;;;;;4.29;88.80;100623.97;6186130;23;20001;-87
2021/12/16 06:59:23;;;;;;;60.55;31.27;;;;;;;4.32;88.92;100622.81;6138634;23;20009;-87
2021/12/16 07:02:04;;;;;;;55.88;31.10;;;;;;;4.35;88.59;100625.13;6159536;23;20009;-85
2021/12/16 07:04:29;;;;;;;55.33;26.83;;;;;;;4.35;88.47;100630.41;6142303;23;20001;-88
2021/12/16 07:06:55;;;;;;;54.78;28.17;;;;;;;4.19;88.88;100598.72;6160851;23;20016;-85
2021/12/16 07:09:22;;;;;;;66.63;30.73;;;;;;;4.25;88.77;100606.81;6161347;23;20001;-85
2021/12/16 07:11:52;;;;;;;61.33;30.40;;;;;;;4.33;88.72;100617.38;6161249;23;20027;-84
2021/12/16 07:14:19;;;;;;;64.15;30.40;;;;;;;4.43;89.34;100636.53;6160298;23;20016;-86
2021/12/16 07:16:48;;;;;;;60.55;30.80;;;;;;;4.45;89.35;100642.50;6159914;23;20005;-84
2021/12/16 07:19:13;;;;;;;61.60;28.58;;;;;;;4.47;89.39;100645.81;6186754;23;20108;-84
2021/12/16 07:21:40;;;;;;;57.55;29.58;;;;;;;4.30;89.77;100614.25;6185076;23;20436;-86
2021/12/16 07:24:08;;;;;;;61.92;31.65;;;;;;;4.50;89.57;100642.81;6136568;23;20009;-84
2021/12/16 07:26:35;;;;;;;62.80;29.77;;;;;;;4.49;89.32;100643.81;6133720;23;20009;-85
2021/12/16 07:29:01;;;;;;;58.30;29.38;;;;;;;4.48;89.50;100641.31;6134502;23;20019;-85
2021/12/16 07:31:28;;;;;;;60.30;30.90;;;;;;;4.58;89.40;100652.56;6159846;23;20036;-85
2021/12/16 07:33:55;;;;;;;63.38;30.15;;;;;;;4.60;89.17;100657.69;6165775;23;20005;-87
2021/12/16 07:36:25;;;;;;;60.00;31.35;;;;;;;4.62;89.59;100658.34;6166886;23;20040;-88
2021/12/16 07:38:52;;;;;;;62.25;30.92;;;;;;;4.48;89.41;100639.50;6144105;23;20005;-88
2021/12/16 07:41:21;;;;;;;62.40;29.58;;;;;;;4.60;89.24;100649.75;6166648;23;20004;-86
2021/12/16 07:46:20;;;;;;;57.55;28.80;;;;;;;4.42;89.27;100618.19;6198372;23;20376;-87
2021/12/16 07:48:46;;;;;;;72.07;30.70;;;;;;;4.80;89.45;100682.81;6167336;23;20011;-86
2021/12/16 07:51:12;;;;;;;68.70;31.05;;;;;;;4.79;88.97;100675.84;6119922;23;20055;-86
2021/12/16 07:53:38;;;;;;;61.28;30.00;;;;;;;4.87;89.36;100681.16;6168089;23;20424;-87
2021/12/16 07:56:05;;;;;;;58.30;30.58;;;;;;;4.87;89.29;100686.44;6138405;23;20009;-86
2021/12/16 07:58:33;;;;;;;63.60;30.77;;;;;;;4.86;89.42;100682.13;6162579;23;20063;-88
2021/12/16 08:01:00;;;;;;;65.85;30.42;;;;;;;4.95;89.05;100697.00;6189519;23;20005;-86
2021/12/16 08:03:34;;;;;;;74.82;31.75;;;;;;;4.98;89.32;100696.69;6135958;23;20016;-87
2021/12/16 08:06:05;;;;;;;58.65;29.25;;;;;;;4.99;89.72;100699.16;6160080;23;20031;-85
2021/12/16 08:08:32;;;;;;;64.53;31.95;;;;;;;4.45;89.75;100608.13;6167824;23;20013;-84
2021/12/16 08:10:58;;;;;;;62.90;31.00;;;;;;;5.02;89.18;100698.81;6193592;23;20047;-84
2021/12/16 08:13:24;;;;;;;65.00;32.83;;;;;;;4.94;89.43;100687.41;6194211;23;20016;-84
2021/12/16 08:15:50;;;;;;;65.40;31.67;;;;;;;5.06;89.28;100704.59;6166686;23;20353;-84
2021/12/16 08:18:16;;;;;;;65.80;30.30;;;;;;;5.00;89.11;100692.84;6138703;23;20013;-83
2021/12/16 08:20:42;;;;;;;71.47;34.17;;;;;;;5.04;89.66;100696.84;6163068;23;20009;-84
2021/12/16 08:23:08;;;;;;;62.35;33.10;;;;;;;5.07;89.11;100706.25;6170357;23;20005;-84
2021/12/16 08:25:35;;;;;;;61.25;31.80;;;;;;;5.08;89.19;100706.09;6174477;23;20005;-84
2021/12/16 08:28:03;;;;;;;58.30;32.25;;;;;;;4.57;88.70;100614.72;6198439;23;20009;-84
2021/12/16 08:30:32;;;;;;;56.17;30.42;;;;;;;5.11;89.02;100707.59;6199642;23;20009;-85
2021/12/16 08:32:59;;;;;;;65.25;31.38;;;;;;;5.01;89.37;100689.22;6175650;23;20009;-85
2021/12/16 08:35:26;;;;;;;65.82;32.60;;;;;;;4.69;89.70;100635.53;6202337;23;20001;-84
2021/12/16 08:37:51;;;;;;;58.97;30.48;;;;;;;4.67;89.54;100632.22;6155382;23;20013;-84
2021/12/16 08:40:20;;;;;;;56.67;29.85;;;;;;;5.13;88.72;100693.16;6179497;23;20005;-83
2021/12/16 08:42:46;;;;;;;64.72;30.67;;;;;;;4.65;88.98;100618.34;6177120;23;20013;-83
2021/12/16 08:45:18;;;;;;;62.17;32.88;;;;;;;4.65;89.28;100613.91;6203588;23;20036;-82
2021/12/16 08:47:44;;;;;;;70.20;32.88;;;;;;;4.66;89.62;100615.53;6177160;23;20013;-83
2021/12/16 08:50:11;;;;;;;67.78;33.17;;;;;;;5.21;89.36;100697.63;6179722;23;20052;-83
2021/12/16 08:52:36;;;;;;;63.92;32.67;;;;;;;5.21;89.79;100695.81;6200215;23;20020;-85
2021/12/16 08:55:03;;;;;;;66.95;33.65;;;;;;;4.66;90.24;100610.25;6149548;23;20009;-83
2021/12/16 08:57:29;;;;;;;65.22;33.60;;;;;;;4.76;90.66;100628.59;6175094;23;20009;-84
2021/12/16 08:59:55;;;;;;;64.28;33.33;;;;;;;4.84;90.21;100645.28;6201053;23;20065;-83
2021/12/16 09:02:22;;;;;;;60.83;31.70;;;;;;;4.81;90.50;100634.19;6200750;23;20028;-84
2021/12/16 09:04:48;;;;;;;72.97;33.58;;;;;;;5.36;90.44;100724.22;6200799;23;20016;-85
2021/12/16 09:07:14;;;;;;;62.75;31.80;;;;;;;5.37;90.11;100729.38;6200869;23;20013;-84
2021/12/16 09:09:42;;;;;;;71.25;32.30;;;;;;;5.05;90.89;100679.97;6147977;23;20005;-84
2021/12/16 09:12:25;;;;;;;67.68;30.65;;;;;;;5.02;90.71;100676.84;6200401;23;20009;-84
2021/12/16 09:14:51;;;;;;;70.10;33.00;;;;;;;5.42;90.31;100742.91;6173007;23;20068;-83
2021/12/16 09:17:16;;;;;;;70.80;35.08;;;;;;;4.89;90.98;100653.50;6174572;23;20016;-84
2021/12/16 09:19:47;;;;;;;72.55;33.78;;;;;;;5.47;90.22;100740.59;6148568;23;20073;-83
2021/12/16 09:22:15;;;;;;;59.88;31.67;;;;;;;5.13;91.27;100679.94;6175414;23;20005;-83
2021/12/16 09:24:41;;;;;;;68.18;33.55;;;;;;;5.51;90.75;100744.56;6201246;23;20011;-84
2021/12/16 09:27:07;;;;;;;65.28;30.67;;;;;;;5.06;90.64;100664.91;6174669;23;20005;-83
2021/12/16 09:29:33;;;;;;;65.82;31.83;;;;;;;5.06;91.34;100668.41;6202081;23;20005;-83
2021/12/16 09:32:02;;;;;;;58.78;28.20;;;;;;;5.11;91.53;100681.13;6175904;23;20020;-83
2021/12/16 09:34:27;;;;;;;64.90;32.05;;;;;;;5.59;91.40;100759.63;6203614;23;20445;-84
2021/12/16 09:36:53;;;;;;;67.68;31.52;;;;;;;5.15;91.24;100693.03;6125878;23;20017;-83
2021/12/16 09:39:21;;;;;;;65.60;32.08;;;;;;;5.61;91.75;100763.75;6175497;23;20106;-84
2021/12/16 09:41:49;;;;;;;61.35;29.73;;;;;;;5.30;91.46;100720.44;6175620;23;20047;-84
2021/12/16 09:44:16;;;;;;;68.50;32.63;;;;;;;5.12;91.88;100688.88;6151867;23;20007;-83
2021/12/16 09:46:47;;;;;;;65.03;32.03;;;;;;;5.61;92.70;100753.16;6177407;23;20001;-83
2021/12/16 09:49:13;;;;;;;69.07;33.00;;;;;;;5.06;92.60;100656.97;6202656;23;20039;-83
2021/12/16 09:51:41;;;;;;;78.18;34.63;;;;;;;5.67;92.45;100752.47;6176365;23;20005;-83
2021/12/16 09:54:10;;;;;;;69.07;31.05;;;;;;;5.25;92.72;100688.34;6203741;23;20005;-84
2021/12/16 09:56:39;;;;;;;75.03;33.35;;;;;;;5.27;92.97;100689.00;6175876;23;20005;-84
2021/12/16 09:59:07;;;;;;;63.55;30.40;;;;;;;5.33;93.36;100686.50;6173573;23;20005;-82
2021/12/16 10:01:34;;;;;;;68.70;33.47;;;;;;;5.29;93.06;100690.50;6194432;23;20458;-89
2021/12/16 10:04:03;;;;;;;66.05;32.90;;;;;;;5.22;92.95;100664.91;6138388;23;20009;-84
2021/12/16 10:06:31;;;;;;;61.30;30.02;;;;;;;5.40;92.82;100691.97;6198680;23;20004;-84
2021/12/16 10:08:59;;;;;;;66.57;32.03;;;;;;;5.71;93.32;100737.06;6204191;23;20005;-84
2021/12/16 10:11:25;;;;;;;72.13;33.13;;;;;;;5.48;93.59;100693.75;6200512;23;20005;-83
2021/12/16 10:19:21;;;;;;;70.95;30.05;;;;;;;5.89;93.17;100757.06;6152499;23;20020;-85
2021/12/16 10:21:46;;;;;;;66.85;29.55;;;;;;;5.76;93.57;100730.25;6195330;23;20084;-87
2021/12/16 10:24:27;;;;;;;70.60;31.42;;;;;;;5.92;93.49;100751.41;6170310;23;20455;-87
2021/12/16 10:27:16;;;;;;;68.47;31.45;;;;;;;5.96;93.74;100757.22;6195057;23;20008;-88
2021/12/16 10:29:57;;;;;;;68.07;31.65;;;;;;;5.99;93.65;100757.69;6193579;23;20013;-87
2021/12/16 10:32:37;;;;;;;74.07;34.40;;;;;;;5.86;93.05;100730.06;6167246;23;20099;-85
2021/12/16 10:35:14;;;;;;;74.82;33.63;;;;;;;5.93;93.69;100742.47;6143352;23;20005;-88
2021/12/16 10:37:49;;;;;;;73.93;31.92;;;;;;;6.05;93.22;100753.50;6141530;23;20432;-86
2021/12/16 10:40:40;;;;;;;81.38;36.05;;;;;;;6.08;93.37;100747.88;6167984;23;20004;-86
2021/12/16 10:43:26;;;;;;;71.53;34.35;;;;;;;6.09;93.13;100744.22;6168326;23;20016;-85
2021/12/16 10:46:22;;;;;;;71.27;30.30;;;;;;;6.02;93.70;100730.00;6173141;23;20438;-83
2021/12/16 10:49:02;;;;;;;69.20;30.52;;;;;;;5.68;92.88;100676.47;6170909;23;20068;-84
2021/12/16 10:51:32;;;;;;;67.32;30.13;;;;;;;6.19;93.29;100738.69;6172365;23;20001;-84
2021/12/16 10:54:11;;;;;;;72.22;31.20;;;;;;;6.21;93.34;100736.69;6173417;23;20013;-85
2021/12/16 10:56:40;;;;;;;72.70;30.15;;;;;;;6.23;93.57;100737.34;6171893;23;20005;-84
2021/12/16 10:59:10;;;;;;;66.72;30.85;;;;;;;6.25;93.35;100738.81;6171358;23;20016;-83
2021/12/16 11:01:42;;;;;;;67.72;31.45;;;;;;;6.27;93.47;100733.38;6171784;23;20008;-84
2021/12/16 11:04:12;;;;;;;63.88;31.85;;;;;;;5.97;92.98;100674.88;6173459;23;20016;-84
2021/12/16 11:06:43;;;;;;;68.25;31.85;;;;;;;6.31;92.36;100742.63;6148433;23;20036;-83
2021/12/16 11:09:42;;;;;;;64.47;31.23;;;;;;;5.98;93.08;100702.22;6171228;23;20007;-84
2021/12/16 11:12:33;;;;;;;73.07;30.30;;;;;;;5.94;92.79;100687.66;6148532;23;20008;-84
2021/12/16 11:15:04;;;;;;;66.00;29.30;;;;;;;6.34;93.30;100758.16;6173102;23;20005;-83
2021/12/16 11:17:38;;;;;;;72.88;31.77;;;;;;;5.90;93.47;100700.41;6198519;23;20100;-84
2021/12/16 11:20:24;;;;;;;67.43;29.50;;;;;;;5.92;93.43;100701.06;6172336;23;20020;-84
2021/12/16 11:22:54;;;;;;;62.08;30.52;;;;;;;6.38;93.67;100770.91;6199540;23;20012;-84
2021/12/16 11:25:44;;;;;;;67.70;28.70;;;;;;;5.97;93.38;100701.38;6173871;23;20040;-84
2021/12/16 11:28:25;;;;;;;54.35;25.70;;;;;;;5.97;93.68;100701.38;6198579;23;20005;-84
2021/12/16 11:30:57;;;;;;;57.60;28.35;;;;;;;5.79;93.64;100679.56;6199988;23;20428;-83
2021/12/16 11:33:26;;;;;;;62.58;28.58;;;;;;;5.94;93.03;100701.72;6174937;23;20017;-84
2021/12/16 11:35:56;;;;;;;58.28;27.15;;;;;;;6.04;93.36;100718.25;6199089;23;20016;-84
2021/12/16 11:38:27;;;;;;;61.40;28.70;;;;;;;6.40;93.37;100784.81;6199133;23;20016;-84
2021/12/16 11:41:12;;;;;;;65.43;30.15;;;;;;;6.43;93.53;100781.81;6170450;23;20040;-86
2021/12/16 11:43:54;;;;;;;64.45;28.60;;;;;;;6.45;93.83;100782.47;6186875;23;20008;-88
2021/12/16 11:46:35;;;;;;;59.97;27.40;;;;;;;6.46;94.48;100780.66;6160901;23;20005;-85
2021/12/16 11:49:10;;;;;;;56.05;25.42;;;;;;;6.43;94.21;100786.28;6160701;23;20005;-85
2021/12/16 11:51:50;;;;;;;59.72;25.88;;;;;;;6.48;94.39;100792.75;6186024;23;20391;-86
2021/12/16 11:54:23;;;;;;;59.38;26.23;;;;;;;6.47;94.04;100793.72;6161089;23;20013;-85
2021/12/16 11:56:52;;;;;;;54.08;26.83;;;;;;;6.52;94.18;100793.22;6135010;23;20016;-85
2021/12/16 11:59:43;;;;;;;49.45;23.67;;;;;;;6.43;93.95;100781.00;6157816;23;20451;-86
2021/12/16 12:02:33;;;;;;;50.35;22.05;;;;;;;6.51;94.06;100783.63;6174774;23;20016;-87
2021/12/16 12:05:17;;;;;;;50.83;23.05;;;;;;;6.54;94.23;100796.50;6186516;23;20365;-85
2021/12/16 12:07:47;;;;;;;48.83;22.85;;;;;;;6.55;94.47;100782.25;6159541;23;20440;-86
2021/12/16 12:10:15;;;;;;;48.78;21.75;;;;;;;6.44;94.51;100758.78;6133741;23;20009;-84
2021/12/16 12:12:47;;;;;;;45.92;23.75;;;;;;;6.58;94.37;100776.59;6134259;23;20031;-85
2021/12/16 12:15:16;;;;;;;45.83;21.48;;;;;;;6.61;94.50;100766.47;6157774;23;20387;-84
2021/12/16 12:17:55;;;;;;;44.97;22.00;;;;;;;6.61;95.05;100765.63;6157915;23;20083;-85
2021/12/16 12:20:31;;;;;;;47.10;21.83;;;;;;;6.23;94.27;100709.00;6158166;23;20015;-86
2021/12/16 12:22:58;;;;;;;48.67;22.38;;;;;;;6.63;94.40;100764.47;6158686;23;20007;-90
2021/12/16 12:25:24;;;;;;;50.72;23.15;;;;;;;6.45;94.57;100742.69;6134260;23;20351;-84
2021/12/16 12:27:49;;;;;;;46.00;22.08;;;;;;;6.59;94.70;100755.22;6158129;23;20084;-87
2021/12/16 12:30:17;;;;;;;43.58;22.20;;;;;;;6.66;94.64;100760.63;6132612;23;20009;-84
2021/12/16 12:32:49;;;;;;;45.40;21.52;;;;;;;6.68;94.46;100775.34;6134693;23;20071;-85
2021/12/16 12:35:20;;;;;;;43.70;21.50;;;;;;;6.71;94.43;100774.19;6158322;23;20440;-84
2021/12/16 12:37:50;;;;;;;41.78;21.48;;;;;;;6.58;95.00;100753.53;6157739;23;20352;-84
2021/12/16 12:40:31;;;;;;;52.10;24.35;;;;;;;6.75;94.49;100778.97;6133336;23;20012;-86
2021/12/16 12:42:57;;;;;;;45.88;21.50;;;;;;;6.78;94.54;100775.97;6184677;23;20012;-85
2021/12/16 12:45:27;;;;;;;38.97;19.38;;;;;;;6.80;94.92;100781.09;6157768;23;20001;-85
2021/12/16 12:47:55;;;;;;;41.60;21.73;;;;;;;6.84;93.78;100778.94;6133726;23;20095;-85
2021/12/16 12:50:26;;;;;;;44.20;20.90;;;;;;;6.85;94.66;100778.75;6158087;23;20067;-85
2021/12/16 12:52:54;;;;;;;42.70;19.55;;;;;;;6.89;94.29;100790.66;6159681;23;20004;-87
2021/12/16 12:55:31;;;;;;;42.00;21.73;;;;;;;6.89;94.76;100790.66;6139814;23;20448;-88
2021/12/16 12:58:07;;;;;;;34.70;19.20;;;;;;;6.93;94.29;100785.81;6138432;23;20399;-88
2021/12/16 13:00:53;;;;;;;36.10;19.65;;;;;;;6.93;93.33;100789.28;6139158;23;20009;-87
2021/12/16 13:03:30;;;;;;;35.95;19.80;;;;;;;6.87;94.20;100782.03;6167442;23;20008;-87
2021/12/16 13:06:26;;;;;;;38.70;20.55;;;;;;;6.86;93.79;100777.72;6164806;23;20336;-86
2021/12/16 13:08:51;;;;;;;40.03;19.95;;;;;;;6.95;93.79;100794.41;6141032;23;20348;-87
2021/12/16 13:11:24;;;;;;;34.05;20.40;;;;;;;6.74;93.79;100766.72;6162620;23;20035;-87
2021/12/16 13:14:24;;;;;;;34.90;18.67;;;;;;;6.70;93.71;100749.50;6164102;23;20016;-86
2021/12/16 13:28:36;;;;;;;32.88;18.38;;;;;;;6.92;93.40;100800.09;6192586;23;20355;-85
2021/12/16 13:31:27;;;;;;;38.40;19.83;;;;;;;6.93;93.04;100805.22;6176118;23;20016;-85
2021/12/16 13:33:56;;;;;;;36.63;18.00;;;;;;;6.66;93.90;100760.63;6203549;23;20037;-84
2021/12/16 13:36:46;;;;;;;39.13;19.90;;;;;;;6.56;93.22;100746.75;6176948;23;20021;-85
2021/12/16 13:39:19;;;;;;;35.97;19.17;;;;;;;6.38;94.41;100719.69;6204741;23;20012;-84
2021/12/16 13:42:03;;;;;;;40.92;19.60;;;;;;;6.67;94.17;100760.44;6153143;23;20025;-85
2021/12/16 13:44:38;;;;;;;32.13;17.92;;;;;;;6.29;93.51;100694.25;6199558;23;20439;-84
2021/12/16 13:48:00;;;;;;;34.72;18.73;;;;;;;6.24;93.33;100685.97;6163484;23;20004;-84
2021/12/16 14:02:26;;;;;;;27.58;17.05;;;;;;;6.93;93.91;100799.91;6185778;23;20017;-85
2021/12/16 14:05:15;;;;;;;30.63;17.52;;;;;;;6.51;93.79;100733.22;6198869;23;20064;-84
2021/12/16 14:07:59;;;;;;;26.88;15.40;;;;;;;6.81;93.89;100774.78;6172400;23;20008;-84
2021/12/16 14:32:44;;;;;;;31.35;15.60;;;;;;;6.48;93.68;100736.22;6185744;23;20409;-85
2021/12/16 14:40:27;;;;;;;32.45;17.95;;;;;;;6.95;93.96;100818.31;6172828;23;20020;-87
2021/12/16 14:43:19;;;;;;;34.20;17.48;;;;;;;6.64;93.96;100781.22;6168028;23;20088;-87
2021/12/16 14:45:57;;;;;;;31.02;17.05;;;;;;;6.14;94.12;100696.00;6156026;23;20005;-86
2021/12/16 15:35:55;;;;;;;37.88;18.83;;;;;;;6.72;93.95;100808.53;6195719;23;20457;-84
2021/12/16 15:44:11;;;;;;;31.20;19.70;;;;;;;6.85;93.35;100833.63;6077768;23;20634;-87
2021/12/16 15:46:37;;;;;;;37.00;20.25;;;;;;;6.75;93.49;100820.59;6094242;23;20009;-86